Time;durP1;ratioP1;P1;durP2;ratioP2;P2;SDS_P1;SDS_P2;PMS_P1;PMS_P2;Temp;Humidity;BMP_temperature;BMP_pressure;BME280_temperature;BME280_humidity;BME280_pressure;Samples;Min_cycle;Max_cycle;Signal;HPM_P1;HPM_P2
2021/12/30 00:02:00;;;;;;;1.30;0.90;;;23.70;59.00;;;;;;4126653;28;20535;-48
2021/12/30 00:04:03;;;;;;;2.70;1.08;;;23.70;59.00;;;;;;4132768;28;20078;-48
2021/12/30 00:06:06;;;;;;;1.80;0.82;;;23.80;58.90;;;;;;4125612;28;20061;-48
2021/12/30 00:08:09;;;;;;;1.02;0.80;;;23.80;58.80;;;;;;4125703;28;20049;-47
2021/12/30 00:10:11;;;;;;;1.83;0.70;;;23.80;58.80;;;;;;4136108;28;20425;-53
2021/12/30 00:12:13;;;;;;;1.73;0.77;;;23.80;58.80;;;;;;4127281;28;20947;-51
2021/12/30 00:14:15;;;;;;;2.08;1.00;;;23.80;58.70;;;;;;4124031;28;20071;-47
2021/12/30 00:16:19;;;;;;;1.55;0.88;;;23.80;58.70;;;;;;4132658;28;20067;-49
2021/12/30 00:18:21;;;;;;;1.40;0.70;;;23.80;58.00;;;;;;4132514;28;20107;-46
2021/12/30 00:20:24;;;;;;;1.37;0.80;;;23.90;58.60;;;;;;4125561;28;20526;-52
2021/12/30 00:22:27;;;;;;;1.87;1.00;;;23.90;58.50;;;;;;4124694;28;20314;-52
2021/12/30 00:24:29;;;;;;;1.52;0.90;;;23.90;58.60;;;;;;4130784;28;20333;-50
2021/12/30 00:26:32;;;;;;;1.05;0.80;;;23.90;58.50;;;;;;4122774;28;20114;-49
2021/12/30 00:28:34;;;;;;;1.77;1.00;;;23.90;58.40;;;;;;4121623;28;20064;-50
2021/12/30 00:30:36;;;;;;;1.38;0.77;;;24.00;58.40;;;;;;4131387;28;20072;-52
2021/12/30 00:32:39;;;;;;;2.15;1.00;;;24.00;58.40;;;;;;4126608;28;21137;-47
2021/12/30 00:34:41;;;;;;;2.80;1.30;;;24.00;58.30;;;;;;4121718;28;20056;-54
2021/12/30 00:36:43;;;;;;;0.88;0.65;;;23.90;58.40;;;;;;4126155;28;20634;-53
2021/12/30 00:38:46;;;;;;;0.98;0.68;;;23.90;58.40;;;;;;4132080;28;20049;-51
2021/12/30 00:40:49;;;;;;;1.63;0.85;;;24.00;58.50;;;;;;4122477;28;20053;-52
2021/12/30 00:42:51;;;;;;;1.33;0.75;;;24.00;58.80;;;;;;4123509;28;20053;-52
2021/12/30 00:44:53;;;;;;;2.53;0.85;;;24.00;58.40;;;;;;4133899;28;20540;-51
2021/12/30 00:46:57;;;;;;;1.63;0.90;;;24.00;58.30;;;;;;4124330;28;20068;-52
2021/12/30 00:48:59;;;;;;;1.02;0.75;;;24.00;58.30;;;;;;4123085;28;20045;-49
2021/12/30 00:51:02;;;;;;;2.30;0.80;;;24.00;58.20;;;;;;4131356;28;20057;-56
2021/12/30 00:53:06;;;;;;;1.63;1.13;;;24.00;58.30;;;;;;4129787;28;21549;-53
2021/12/30 00:55:09;;;;;;;3.05;0.90;;;24.00;58.30;;;;;;4123033;28;20179;-52
2021/12/30 00:57:11;;;;;;;2.15;0.80;;;24.00;58.30;;;;;;4121409;28;20521;-52
2021/12/30 00:59:13;;;;;;;1.60;0.90;;;24.00;59.00;;;;;;4134244;28;20057;-54
2021/12/30 01:02:11;;;;;;;1.88;0.75;;;24.00;57.80;;;;;;4139881;27;20429;-48
2021/12/30 01:04:14;;;;;;;1.67;0.68;;;24.00;58.30;;;;;;4158228;28;20071;-52
2021/12/30 01:06:16;;;;;;;1.00;0.77;;;24.10;58.40;;;;;;4157967;28;20122;-50
2021/12/30 01:08:18;;;;;;;2.70;0.80;;;24.00;58.30;;;;;;4152131;28;20471;-50
2021/12/30 01:10:23;;;;;;;1.37;0.93;;;24.00;58.30;;;;;;4139722;28;20068;-49
2021/12/30 01:12:25;;;;;;;1.20;0.88;;;24.00;58.40;;;;;;4163365;28;21071;-51
2021/12/30 01:14:30;;;;;;;1.35;0.75;;;24.00;58.40;;;;;;4152952;28;20473;-50
2021/12/30 01:16:41;;;;;;;1.15;1.00;;;24.10;58.40;;;;;;4151776;28;20063;-51
2021/12/30 01:18:59;;;;;;;2.20;0.98;;;24.00;58.30;;;;;;4152210;28;20075;-46
2021/12/30 01:21:01;;;;;;;0.90;0.73;;;24.10;58.30;;;;;;4152019;28;21273;-50
2021/12/30 01:23:04;;;;;;;1.40;0.97;;;24.20;58.20;;;;;;4155211;28;20146;-49
2021/12/30 01:25:07;;;;;;;1.10;0.77;;;24.20;58.20;;;;;;4162176;28;20320;-51
2021/12/30 01:27:10;;;;;;;1.33;1.13;;;24.20;58.20;;;;;;4138870;28;20060;-49
2021/12/30 01:29:12;;;;;;;1.00;0.90;;;24.20;58.20;;;;;;4137611;28;20147;-52
2021/12/30 01:31:16;;;;;;;1.13;0.80;;;24.30;58.20;;;;;;4147299;28;20454;-53
2021/12/30 01:33:19;;;;;;;1.33;0.60;;;24.40;58.10;;;;;;4141800;28;20139;-47
2021/12/30 01:35:25;;;;;;;;;;;24.30;58.00;;;;;;4137389;28;20041;-47
2021/12/30 01:37:27;;;;;;;1.33;0.80;;;24.40;58.10;;;;;;4136456;28;19939;-48
2021/12/30 01:39:30;;;;;;;1.35;0.68;;;24.40;58.00;;;;;;4128636;28;20057;-49
2021/12/30 01:41:33;;;;;;;1.25;0.73;;;24.40;57.90;;;;;;4138125;28;20385;-48
2021/12/30 01:43:36;;;;;;;0.90;0.60;;;24.40;57.90;;;;;;4134738;28;20099;-51
2021/12/30 01:45:40;;;;;;;0.88;0.57;;;24.40;57.90;;;;;;4141304;28;20374;-53
2021/12/30 01:47:49;;;;;;;5.53;1.20;;;24.40;57.90;;;;;;4146095;28;20072;-49
2021/12/30 01:49:53;;;;;;;1.25;0.70;;;24.50;57.90;;;;;;4141282;28;21892;-53
2021/12/30 01:51:56;;;;;;;0.68;0.68;;;24.40;57.80;;;;;;4133793;28;20102;-48
2021/12/30 01:53:59;;;;;;;1.20;0.75;;;24.40;57.80;;;;;;4135544;28;20052;-49
2021/12/30 01:56:01;;;;;;;1.90;0.80;;;24.50;57.90;;;;;;4146248;28;20056;-49
2021/12/30 01:58:05;;;;;;;1.27;0.65;;;24.50;57.90;;;;;;4133866;28;20065;-50
2021/12/30 02:00:11;;;;;;;1.33;0.70;;;24.50;57.90;;;;;;4135830;28;20065;-50
2021/12/30 02:02:14;;;;;;;0.52;0.50;;;24.50;57.90;;;;;;4136976;28;20057;-50
2021/12/30 02:04:16;;;;;;;0.82;0.60;;;24.50;57.90;;;;;;4145247;28;20108;-48
2021/12/30 02:06:18;;;;;;;2.05;0.93;;;24.50;57.90;;;;;;4136790;28;20045;-53
2021/12/30 02:08:21;;;;;;;0.93;0.68;;;24.50;57.90;;;;;;4134267;28;20450;-49
2021/12/30 02:10:24;;;;;;;1.65;0.77;;;24.60;57.80;;;;;;4145090;28;20049;-51
2021/12/30 02:12:27;;;;;;;1.25;0.80;;;24.60;57.60;;;;;;4135268;28;20053;-50
2021/12/30 02:14:33;;;;;;;1.40;0.80;;;24.60;57.60;;;;;;4124870;28;20053;-50
2021/12/30 02:16:37;;;;;;;1.60;0.88;;;24.60;57.60;;;;;;4125373;28;20123;-53
2021/12/30 02:18:39;;;;;;;1.58;0.90;;;24.70;57.70;;;;;;4134311;28;20068;-50
2021/12/30 02:20:54;;;;;;;1.65;0.90;;;24.70;57.60;;;;;;4127763;28;20995;-54
2021/12/30 02:22:56;;;;;;;0.60;0.60;;;24.80;57.60;;;;;;4128093;28;21842;-50
2021/12/30 02:24:59;;;;;;;1.38;0.80;;;24.80;57.50;;;;;;4125811;28;20060;-51
2021/12/30 02:27:02;;;;;;;1.50;0.85;;;24.80;57.50;;;;;;4127071;28;20052;-51
2021/12/30 02:29:04;;;;;;;1.05;0.60;;;24.80;57.40;;;;;;4133432;28;20117;-48
2021/12/30 02:31:18;;;;;;;2.70;0.90;;;24.80;57.40;;;;;;4124631;28;20183;-48
2021/12/30 02:33:20;;;;;;;1.75;0.80;;;24.90;57.40;;;;;;4123733;28;20129;-52
2021/12/30 02:35:23;;;;;;;1.52;0.90;;;24.90;57.40;;;;;;4125834;28;20060;-51
2021/12/30 02:37:25;;;;;;;1.50;0.82;;;24.90;57.30;;;;;;4116047;28;20116;-54
2021/12/30 02:39:27;;;;;;;1.63;0.93;;;24.90;57.30;;;;;;4109939;28;20061;-50
2021/12/30 02:41:33;;;;;;;1.90;1.10;;;25.00;57.10;;;;;;4124451;28;20041;-47
2021/12/30 02:43:35;;;;;;;2.00;1.00;;;25.00;57.20;;;;;;4125543;28;20041;-54
2021/12/30 02:45:37;;;;;;;1.60;0.80;;;25.00;57.10;;;;;;4133812;28;20385;-53
2021/12/30 02:47:39;;;;;;;0.98;0.52;;;25.00;57.00;;;;;;4123660;28;20256;-48
2021/12/30 02:49:42;;;;;;;2.83;1.20;;;25.00;57.10;;;;;;4123993;28;20527;-52
2021/12/30 02:51:44;;;;;;;1.85;0.82;;;25.00;57.50;;;;;;4135425;28;20096;-55
2021/12/30 02:53:47;;;;;;;2.35;0.80;;;25.10;57.20;;;;;;4123853;28;20067;-55
2021/12/30 02:55:50;;;;;;;2.15;1.02;;;25.10;57.10;;;;;;4123070;28;20045;-54
2021/12/30 02:57:53;;;;;;;2.05;0.80;;;25.10;57.10;;;;;;4129753;28;20456;-54
2021/12/30 02:59:55;;;;;;;1.63;0.70;;;25.10;56.90;;;;;;4114851;28;20380;-51
2021/12/30 03:01:57;;;;;;;2.00;0.85;;;25.20;57.00;;;;;;4124427;28;20143;-51
2021/12/30 03:04:03;;;;;;;1.38;0.90;;;25.20;56.80;;;;;;4123431;28;20049;-51
2021/12/30 03:06:07;;;;;;;1.80;0.80;;;25.30;56.80;;;;;;4127303;28;20045;-52
2021/12/30 03:08:09;;;;;;;2.90;0.85;;;25.30;56.80;;;;;;4116617;28;20041;-52
2021/12/30 03:10:22;;;;;;;0.63;0.50;;;25.30;56.60;;;;;;4126700;28;20061;-51
2021/12/30 03:12:24;;;;;;;2.33;0.93;;;25.30;56.80;;;;;;4129555;28;20084;-49
2021/12/30 03:14:28;;;;;;;1.15;0.65;;;25.30;57.40;;;;;;4123549;28;20064;-48
2021/12/30 03:16:36;;;;;;;1.55;0.90;;;25.40;56.80;;;;;;4126096;28;21421;-50
2021/12/30 03:18:38;;;;;;;1.15;0.70;;;25.40;56.70;;;;;;4107869;28;20061;-49
2021/12/30 03:20:40;;;;;;;1.23;0.65;;;25.40;56.60;;;;;;4135136;28;20404;-54
2021/12/30 03:22:44;;;;;;;0.95;0.65;;;25.40;56.40;;;;;;4122858;28;21915;-50
2021/12/30 03:24:46;;;;;;;1.10;0.70;;;25.50;56.70;;;;;;4123999;28;20053;-51
2021/12/30 03:26:48;;;;;;;1.05;0.52;;;25.50;56.60;;;;;;4123208;28;20652;-56
2021/12/30 03:28:51;;;;;;;1.58;0.80;;;25.50;56.60;;;;;;4134203;28;20806;-50
2021/12/30 03:30:58;;;;;;;0.90;0.70;;;25.50;56.50;;;;;;4125505;28;20045;-48
2021/12/30 03:33:00;;;;;;;1.65;0.70;;;25.60;56.50;;;;;;4123643;28;20041;-48
2021/12/30 03:35:04;;;;;;;2.55;0.85;;;25.60;56.50;;;;;;4122866;28;20076;-49
2021/12/30 03:37:05;;;;;;;;;;;25.60;56.40;;;;;;4129958;28;20075;-49
2021/12/30 03:39:08;;;;;;;1.65;0.60;;;25.60;56.40;;;;;;4128395;28;20530;-51
2021/12/30 03:41:12;;;;;;;1.65;0.60;;;25.70;56.30;;;;;;4122902;28;20115;-49
2021/12/30 03:43:14;;;;;;;1.25;0.50;;;25.70;56.30;;;;;;4124823;28;20752;-53
2021/12/30 03:45:17;;;;;;;0.88;0.50;;;25.70;56.30;;;;;;4132379;28;20098;-53
2021/12/30 03:47:19;;;;;;;1.02;0.52;;;25.70;56.30;;;;;;4128502;28;21679;-51
2021/12/30 03:49:21;;;;;;;1.42;0.70;;;25.80;56.30;;;;;;4122455;28;20068;-48
2021/12/30 03:51:25;;;;;;;1.47;0.60;;;25.80;56.20;;;;;;4125530;28;20053;-54
2021/12/30 03:53:27;;;;;;;1.25;0.60;;;25.80;56.20;;;;;;4133477;28;20581;-55
2021/12/30 03:55:31;;;;;;;3.10;0.93;;;25.80;56.80;;;;;;4128421;28;21863;-49
2021/12/30 03:57:33;;;;;;;0.93;0.70;;;25.80;56.30;;;;;;4122872;28;20061;-51
2021/12/30 03:59:35;;;;;;;1.27;0.70;;;25.90;56.30;;;;;;4124776;28;20990;-52
2021/12/30 04:02:12;;;;;;;0.57;0.30;;;25.90;55.70;;;;;;4116563;28;20426;-55
2021/12/30 04:04:14;;;;;;;1.02;0.60;;;25.90;56.20;;;;;;4110152;28;20061;-48
2021/12/30 04:06:17;;;;;;;1.08;0.57;;;26.00;56.30;;;;;;4092842;28;20042;-51
2021/12/30 04:08:19;;;;;;;1.88;0.77;;;26.00;56.20;;;;;;4078306;28;20505;-50
2021/12/30 04:10:22;;;;;;;1.08;0.50;;;26.00;55.60;;;;;;4119936;28;20125;-56
2021/12/30 04:12:24;;;;;;;;;;;26.10;56.20;;;;;;4114478;28;20057;-50
2021/12/30 04:14:27;;;;;;;0.93;0.65;;;26.10;56.20;;;;;;4094458;28;19992;-55
2021/12/30 04:16:29;;;;;;;1.00;0.52;;;26.10;56.10;;;;;;4112822;28;20432;-52
2021/12/30 04:18:32;;;;;;;0.83;0.50;;;26.10;56.10;;;;;;4121424;28;20053;-55
2021/12/30 04:20:35;;;;;;;2.05;0.70;;;26.20;56.20;;;;;;4117081;28;20057;-48
2021/12/30 04:22:39;;;;;;;0.63;0.50;;;26.20;56.10;;;;;;4094562;28;20802;-50
2021/12/30 04:24:41;;;;;;;1.48;0.68;;;26.20;56.10;;;;;;4113218;28;20053;-49
2021/12/30 04:26:43;;;;;;;0.88;0.68;;;26.30;56.00;;;;;;4112680;28;20046;-55
2021/12/30 04:28:45;;;;;;;1.42;0.57;;;26.30;56.00;;;;;;4086889;28;20064;-49
2021/12/30 04:30:47;;;;;;;1.90;0.80;;;26.40;56.10;;;;;;4101625;28;20061;-50
2021/12/30 04:32:49;;;;;;;0.43;0.40;;;26.40;56.10;;;;;;4097654;28;20090;-55
2021/12/30 04:34:52;;;;;;;1.13;0.52;;;26.50;56.10;;;;;;4110185;28;20323;-50
2021/12/30 04:36:58;;;;;;;1.35;0.80;;;26.50;56.00;;;;;;4082306;28;20077;-50
2021/12/30 04:39:00;;;;;;;0.60;0.60;;;26.60;56.00;;;;;;4095809;28;20460;-53
2021/12/30 04:41:05;;;;;;;1.45;0.60;;;26.60;55.90;;;;;;4095027;28;20064;-54
2021/12/30 04:43:07;;;;;;;1.13;0.50;;;26.60;55.90;;;;;;4081603;28;20077;-49
2021/12/30 04:45:11;;;;;;;0.90;0.60;;;26.70;55.90;;;;;;4087357;28;20042;-52
2021/12/30 04:47:14;;;;;;;1.23;0.50;;;26.70;55.80;;;;;;4078642;28;20471;-55
2021/12/30 04:49:16;;;;;;;2.28;0.82;;;26.80;55.80;;;;;;4077430;28;20054;-50
2021/12/30 04:51:19;;;;;;;1.85;0.77;;;26.80;55.60;;;;;;4094954;28;20137;-51
2021/12/30 04:53:21;;;;;;;2.05;0.60;;;26.90;55.60;;;;;;4103630;28;20061;-51
2021/12/30 04:55:23;;;;;;;0.90;0.65;;;27.00;55.60;;;;;;4075612;28;20058;-53
2021/12/30 04:57:25;;;;;;;3.60;0.95;;;27.00;55.60;;;;;;4092543;28;20080;-52
2021/12/30 04:59:27;;;;;;;1.85;0.60;;;27.10;56.20;;;;;;4098653;28;20953;-51
2021/12/30 05:01:29;;;;;;;0.93;0.70;;;27.20;56.30;;;;;;4067125;28;20051;-51
2021/12/30 05:03:32;;;;;;;1.15;0.70;;;27.20;56.50;;;;;;4059288;28;20488;-48
2021/12/30 05:05:44;;;;;;;7.25;0.93;;;27.30;56.50;;;;;;4059190;28;20566;-47
2021/12/30 05:07:46;;;;;;;7.20;0.98;;;27.40;56.70;;;;;;4059228;28;20066;-49
2021/12/30 05:09:48;;;;;;;3.17;0.70;;;27.40;56.80;;;;;;4067170;28;20055;-53
2021/12/30 05:11:50;;;;;;;1.65;0.85;;;27.50;56.90;;;;;;4060164;28;20062;-47
2021/12/30 05:13:53;;;;;;;3.37;0.80;;;27.50;55.60;;;;;;4046471;28;20073;-51
2021/12/30 05:15:55;;;;;;;0.95;0.70;;;27.50;53.70;;;;;;4045332;28;20507;-46
2021/12/30 05:17:57;;;;;;;1.77;0.40;;;27.40;52.30;;;;;;4056377;28;20048;-47
2021/12/30 05:19:59;;;;;;;1.02;0.50;;;27.20;53.20;;;;;;4044865;28;21605;-50
2021/12/30 05:22:02;;;;;;;1.02;0.60;;;27.20;53.60;;;;;;4045208;29;20055;-53
2021/12/30 05:24:04;;;;;;;1.47;0.60;;;27.30;53.80;;;;;;4043921;28;20048;-52
2021/12/30 05:26:06;;;;;;;0.75;0.40;;;27.40;54.20;;;;;;4054930;28;20062;-51
2021/12/30 05:28:08;;;;;;;3.53;0.88;;;27.50;54.30;;;;;;4045805;28;20063;-47
2021/12/30 05:30:12;;;;;;;5.50;0.82;;;27.60;54.90;;;;;;4046353;28;20096;-51
2021/12/30 05:32:15;;;;;;;10.43;1.55;;;27.70;55.20;;;;;;4046253;28;20550;-62
2021/12/30 05:34:17;;;;;;;9.55;0.88;;;27.80;55.60;;;;;;4088290;28;20057;-63
2021/12/30 05:36:20;;;;;;;4.97;0.82;;;27.80;55.70;;;;;;4074865;28;21829;-61
2021/12/30 05:38:22;;;;;;;4.70;0.73;;;27.80;56.00;;;;;;4078511;28;20062;-61
2021/12/30 05:40:24;;;;;;;0.60;0.50;;;27.80;56.60;;;;;;4051179;28;20626;-61
2021/12/30 05:42:26;;;;;;;0.30;0.30;;;27.80;54.60;;;;;;4055723;28;20065;-62
2021/12/30 05:44:28;;;;;;;0.67;0.63;;;27.70;52.50;;;;;;4048604;28;22530;-61
2021/12/30 05:46:31;;;;;;;2.20;0.63;;;27.40;51.80;;;;;;4046727;28;20332;-62
2021/12/30 05:48:33;;;;;;;1.42;0.57;;;27.30;52.90;;;;;;4050812;28;20094;-62
2021/12/30 05:50:36;;;;;;;0.93;0.40;;;27.30;53.70;;;;;;4054752;28;20085;-61
2021/12/30 05:52:38;;;;;;;0.60;0.40;;;27.40;54.40;;;;;;4048539;28;20487;-61
2021/12/30 05:54:44;;;;;;;0.50;0.30;;;27.50;54.70;;;;;;4045909;28;20052;-60
2021/12/30 05:56:46;;;;;;;0.57;0.40;;;27.50;55.00;;;;;;4052957;28;21214;-62
2021/12/30 05:58:48;;;;;;;2.85;0.40;;;27.60;55.30;;;;;;4054610;28;20059;-62
2021/12/30 06:00:51;;;;;;;0.47;0.30;;;27.70;55.50;;;;;;4060893;28;20085;-62
2021/12/30 06:02:53;;;;;;;0.40;0.40;;;27.80;55.70;;;;;;4079819;28;20142;-65
2021/12/30 06:04:55;;;;;;;0.50;0.50;;;27.80;55.90;;;;;;4087124;28;20636;-65
2021/12/30 06:06:58;;;;;;;0.53;0.50;;;27.90;53.80;;;;;;4085797;28;20623;-64
2021/12/30 06:09:00;;;;;;;0.65;0.50;;;27.70;51.70;;;;;;4080632;28;20148;-61
2021/12/30 06:11:02;;;;;;;0.50;0.40;;;27.50;50.70;;;;;;4080158;28;20137;-50
2021/12/30 06:13:04;;;;;;;1.90;0.40;;;27.30;51.10;;;;;;4086257;28;20542;-58
2021/12/30 06:15:08;;;;;;;1.50;0.80;;;27.30;51.80;;;;;;4085518;28;20050;-58
2021/12/30 06:17:15;;;;;;;1.65;0.52;;;27.30;52.40;;;;;;4080951;28;20235;-56
2021/12/30 06:19:17;;;;;;;0.30;0.30;;;27.40;52.90;;;;;;4051679;28;20047;-57
2021/12/30 06:21:19;;;;;;;0.60;0.30;;;27.50;53.60;;;;;;4088726;28;20050;-57
2021/12/30 06:23:21;;;;;;;0.50;0.27;;;27.60;54.10;;;;;;4069435;28;20182;-55
2021/12/30 06:25:23;;;;;;;1.08;0.40;;;27.70;54.20;;;;;;4079477;28;20050;-55
2021/12/30 06:27:25;;;;;;;1.83;0.80;;;27.80;54.80;;;;;;4054771;28;20043;-57
2021/12/30 06:29:28;;;;;;;3.77;1.90;;;27.80;52.60;;;;;;4073314;28;20145;-58
2021/12/30 06:31:30;;;;;;;5.57;3.00;;;27.70;50.90;;;;;;4067238;28;20561;-56
2021/12/30 06:33:32;;;;;;;6.03;3.17;;;27.50;50.40;;;;;;4083697;28;20538;-56
2021/12/30 06:35:34;;;;;;;7.70;3.63;;;27.30;50.70;;;;;;4074650;28;20352;-57
2021/12/30 06:37:40;;;;;;;6.30;2.83;;;27.20;51.60;;;;;;4064235;28;20054;-58
2021/12/30 06:39:42;;;;;;;8.77;3.15;;;27.30;52.40;;;;;;4068077;28;21144;-58
2021/12/30 06:41:45;;;;;;;5.05;2.95;;;27.40;52.90;;;;;;4069540;28;20047;-56
2021/12/30 06:43:47;;;;;;;5.03;2.35;;;27.50;53.40;;;;;;4091567;28;20185;-56
2021/12/30 06:45:49;;;;;;;4.43;2.70;;;27.60;53.60;;;;;;4060702;28;20082;-55
2021/12/30 06:47:52;;;;;;;5.05;3.08;;;27.70;54.20;;;;;;4067573;28;20387;-57
2021/12/30 06:50:01;;;;;;;6.35;3.67;;;27.70;52.40;;;;;;4087140;28;20058;-59
2021/12/30 06:52:09;;;;;;;5.60;3.78;;;27.60;50.70;;;;;;4069250;28;20055;-54
2021/12/30 06:54:11;;;;;;;5.88;3.30;;;27.40;50.20;;;;;;4048035;28;20519;-57
2021/12/30 06:56:14;;;;;;;6.43;3.43;;;27.30;51.20;;;;;;4064580;28;20058;-58
2021/12/30 06:58:17;;;;;;;6.47;3.17;;;27.30;51.90;;;;;;4084828;28;20047;-57
2021/12/30 07:00:21;;;;;;;;;;;27.40;52.40;;;;;;4070587;28;20102;-54
2021/12/30 07:02:23;;;;;;;5.72;2.58;;;27.50;52.50;;;;;;4064460;28;19965;-55
2021/12/30 07:04:26;;;;;;;4.53;2.50;;;27.60;53.00;;;;;;4062116;28;20051;-55
2021/12/30 07:06:28;;;;;;;5.70;3.08;;;27.70;54.00;;;;;;4073587;28;20485;-57
2021/12/30 07:08:30;;;;;;;4.40;2.33;;;27.80;53.80;;;;;;4078105;28;20058;-52
2021/12/30 07:10:32;;;;;;;4.50;2.43;;;27.70;51.50;;;;;;4063389;28;20070;-56
2021/12/30 07:12:36;;;;;;;3.53;2.25;;;27.50;50.30;;;;;;4070963;28;20081;-57
2021/12/30 07:14:38;;;;;;;4.72;2.60;;;27.30;49.80;;;;;;4069263;28;20160;-52
2021/12/30 07:16:40;;;;;;;4.55;2.58;;;27.10;50.30;;;;;;4046179;28;20067;-51
2021/12/30 07:18:43;;;;;;;5.18;2.25;;;27.20;51.10;;;;;;4067962;28;20050;-52
2021/12/30 07:20:45;;;;;;;3.53;2.10;;;27.20;51.60;;;;;;4069553;28;20046;-54
2021/12/30 07:22:47;;;;;;;3.42;2.05;;;27.30;51.90;;;;;;4064932;28;20745;-57
2021/12/30 07:24:49;;;;;;;3.35;1.98;;;27.40;52.40;;;;;;4092515;28;20517;-57
2021/12/30 07:26:53;;;;;;;3.77;2.10;;;27.50;52.70;;;;;;4073829;28;20346;-56
2021/12/30 07:28:55;;;;;;;3.70;2.00;;;27.60;53.20;;;;;;4062033;28;20047;-53
2021/12/30 07:30:57;;;;;;;3.10;1.83;;;27.60;51.70;;;;;;4065135;28;20079;-57
2021/12/30 07:33:00;;;;;;;3.50;1.92;;;27.40;49.70;;;;;;4069947;28;20538;-57
2021/12/30 07:35:03;;;;;;;3.67;1.52;;;27.30;49.60;;;;;;4068085;28;20977;-51
2021/12/30 07:37:05;;;;;;;4.05;1.80;;;27.00;49.90;;;;;;4063497;28;20581;-55
2021/12/30 07:39:07;;;;;;;4.13;1.57;;;26.90;50.30;;;;;;4067294;28;20050;-56
2021/12/30 07:41:09;;;;;;;2.55;1.58;;;27.00;51.40;;;;;;4055632;28;20122;-54
2021/12/30 07:43:11;;;;;;;2.70;1.50;;;27.10;51.30;;;;;;4091997;28;20049;-53
2021/12/30 07:45:14;;;;;;;5.37;1.93;;;27.20;51.60;;;;;;4095002;28;20080;-55
2021/12/30 07:47:17;;;;;;;3.13;1.58;;;27.20;51.90;;;;;;4073287;28;20145;-59
2021/12/30 07:49:19;;;;;;;;;;;27.30;52.20;;;;;;4064368;28;20131;-58
2021/12/30 07:51:21;;;;;;;3.38;1.40;;;27.30;52.30;;;;;;4064040;28;19961;-55
2021/12/30 07:53:23;;;;;;;2.28;1.60;;;27.20;49.80;;;;;;4056985;28;20062;-57
2021/12/30 07:55:25;;;;;;;2.47;1.38;;;27.00;49.30;;;;;;4064942;28;20089;-53
2021/12/30 07:57:28;;;;;;;3.45;1.73;;;26.70;49.50;;;;;;4061419;28;20144;-58
2021/12/30 07:59:30;;;;;;;2.38;1.30;;;26.70;50.30;;;;;;4066754;28;20101;-56
2021/12/30 08:01:32;;;;;;;2.00;1.35;;;26.80;50.90;;;;;;4058589;28;20059;-56
2021/12/30 08:03:34;;;;;;;2.33;1.50;;;26.80;51.30;;;;;;4046054;28;20058;-55
2021/12/30 08:05:36;;;;;;;3.33;1.37;;;26.90;51.70;;;;;;4034485;29;20462;-59
2021/12/30 08:07:39;;;;;;;2.93;1.20;;;27.00;52.10;;;;;;4054175;28;20055;-57
2021/12/30 08:09:41;;;;;;;2.67;1.30;;;27.00;52.40;;;;;;4046014;28;20507;-57
2021/12/30 08:11:43;;;;;;;9.57;1.58;;;27.10;52.60;;;;;;4046212;28;20051;-58
2021/12/30 08:13:45;;;;;;;2.97;1.55;;;27.00;50.60;;;;;;4057389;29;20055;-58
2021/12/30 08:15:47;;;;;;;3.67;1.48;;;26.80;49.50;;;;;;4046559;28;22075;-55
2021/12/30 08:17:50;;;;;;;2.50;1.50;;;26.60;49.40;;;;;;4047821;28;20750;-55
2021/12/30 08:19:52;;;;;;;;;;;26.50;50.50;;;;;;4054802;28;20044;-58
2021/12/30 08:21:54;;;;;;;3.63;1.65;;;26.50;50.90;;;;;;4052244;28;20217;-55
2021/12/30 08:23:56;;;;;;;2.15;1.15;;;26.60;51.40;;;;;;4049440;28;20058;-57
2021/12/30 08:25:58;;;;;;;2.57;1.30;;;26.60;51.70;;;;;;4067940;28;20606;-56
2021/12/30 08:28:00;;;;;;;3.67;1.47;;;26.70;51.40;;;;;;4052088;28;21999;-57
2021/12/30 08:30:04;;;;;;;1.90;1.00;;;26.80;52.30;;;;;;4042875;28;20622;-57
2021/12/30 08:32:08;;;;;;;2.35;0.90;;;26.80;52.50;;;;;;4046147;28;20058;-55
2021/12/30 08:34:10;;;;;;;2.10;0.93;;;26.90;52.90;;;;;;4088290;28;20055;-58
2021/12/30 08:36:12;;;;;;;3.38;1.60;;;26.90;52.30;;;;;;4051848;28;20100;-57
2021/12/30 08:38:16;;;;;;;3.90;1.40;;;26.80;50.60;;;;;;4064077;28;20323;-58
2021/12/30 08:40:19;;;;;;;2.35;1.35;;;26.60;49.40;;;;;;4055503;28;20062;-53
2021/12/30 08:42:27;;;;;;;2.03;1.17;;;26.50;50.00;;;;;;4040992;29;21674;-55
2021/12/30 08:44:29;;;;;;;3.15;1.38;;;26.40;51.00;;;;;;4084202;28;20054;-55
2021/12/30 08:46:31;;;;;;;2.70;1.30;;;26.50;51.50;;;;;;4048746;28;20918;-61
2021/12/30 08:48:34;;;;;;;3.15;1.30;;;26.50;51.90;;;;;;4060374;28;20047;-59
2021/12/30 08:50:36;;;;;;;2.87;1.00;;;26.60;52.50;;;;;;4040908;29;22153;-61
2021/12/30 08:52:39;;;;;;;3.55;1.33;;;26.60;52.90;;;;;;4037410;29;20059;-60
2021/12/30 08:54:41;;;;;;;2.22;1.20;;;26.70;53.20;;;;;;4055115;28;20082;-60
2021/12/30 08:56:43;;;;;;;2.07;1.30;;;26.70;53.50;;;;;;4076052;28;20541;-61
2021/12/30 08:58:45;;;;;;;1.60;0.93;;;26.80;53.70;;;;;;4083480;28;20049;-59
2021/12/30 09:00:47;;;;;;;2.25;1.25;;;26.90;53.80;;;;;;4047336;28;20374;-62
2021/12/30 09:02:51;;;;;;;2.10;1.07;;;26.90;53.20;;;;;;4084111;28;20094;-62
2021/12/30 09:04:53;;;;;;;2.38;1.05;;;26.80;51.00;;;;;;4051883;28;21872;-60
2021/12/30 09:06:55;;;;;;;1.20;0.80;;;26.60;49.50;;;;;;4053764;28;20050;-61
2021/12/30 09:08:57;;;;;;;2.13;0.90;;;26.50;50.30;;;;;;4058722;28;20063;-60
2021/12/30 09:11:00;;;;;;;2.17;1.20;;;26.40;51.20;;;;;;4056026;28;21217;-62
2021/12/30 09:13:02;;;;;;;1.40;0.98;;;26.50;51.70;;;;;;4013513;29;20299;-62
2021/12/30 09:15:05;;;;;;;2.17;1.37;;;26.50;52.20;;;;;;4025359;29;20064;-62
2021/12/30 09:17:08;;;;;;;1.52;0.80;;;26.50;52.70;;;;;;4027967;29;20176;-62
2021/12/30 09:19:10;;;;;;;3.77;0.93;;;26.60;53.00;;;;;;4021598;29;20051;-63
2021/12/30 09:21:13;;;;;;;2.42;1.00;;;26.60;53.30;;;;;;4018869;29;20244;-63
2021/12/30 09:23:15;;;;;;;1.13;0.70;;;26.70;53.60;;;;;;4031187;29;20143;-62
2021/12/30 09:25:21;;;;;;;2.22;1.00;;;26.70;53.70;;;;;;4017962;29;20173;-64
2021/12/30 09:27:23;;;;;;;2.97;0.95;;;26.80;54.00;;;;;;4017761;29;20118;-64
2021/12/30 09:29:26;;;;;;;1.25;0.70;;;26.80;54.20;;;;;;4019653;29;20214;-63
2021/12/30 09:31:28;;;;;;;2.55;0.90;;;26.80;54.30;;;;;;4027950;29;20048;-62
2021/12/30 09:33:30;;;;;;;1.53;0.80;;;26.80;54.80;;;;;;4030970;29;20150;-63
2021/12/30 09:35:33;;;;;;;2.78;1.23;;;26.90;54.40;;;;;;4018630;29;20396;-61
2021/12/30 09:37:35;;;;;;;2.08;0.82;;;26.90;54.10;;;;;;4009811;29;20060;-61
2021/12/30 09:39:40;;;;;;;2.28;0.80;;;26.90;54.80;;;;;;4018174;29;20182;-61
2021/12/30 09:41:44;;;;;;;1.73;1.00;;;26.90;54.70;;;;;;3998754;29;20503;-63
2021/12/30 09:43:47;;;;;;;2.55;0.73;;;27.00;54.70;;;;;;4019014;29;20044;-65
2021/12/30 09:45:50;;;;;;;3.17;1.13;;;27.00;55.00;;;;;;4037731;29;20432;-64
2021/12/30 09:47:55;;;;;;;1.40;0.70;;;27.00;54.90;;;;;;3999390;29;20049;-64
2021/12/30 09:49:57;;;;;;;1.80;0.70;;;27.00;55.00;;;;;;4011982;29;20103;-64
2021/12/30 09:51:59;;;;;;;1.73;0.82;;;27.00;55.00;;;;;;4005475;29;20108;-65
2021/12/30 09:54:01;;;;;;;2.90;1.00;;;27.10;55.20;;;;;;4017925;29;20171;-63
2021/12/30 09:56:04;;;;;;;3.10;1.30;;;27.10;55.20;;;;;;4016317;29;20672;-64
2021/12/30 09:58:06;;;;;;;;;;;27.10;55.20;;;;;;4002713;29;20056;-63
2021/12/30 10:02:12;;;;;;;2.10;0.60;;;27.10;54.80;;;;;;4168368;27;20943;-62
2021/12/30 10:04:14;;;;;;;1.70;0.80;;;27.20;55.30;;;;;;4169001;28;20072;-63
2021/12/30 10:06:18;;;;;;;2.13;0.80;;;27.20;55.30;;;;;;4178799;28;20224;-64
2021/12/30 10:08:21;;;;;;;2.30;0.73;;;27.20;55.40;;;;;;4152756;28;21325;-62
2021/12/30 10:10:32;;;;;;;2.75;1.05;;;27.20;55.50;;;;;;4165823;28;20652;-61
2021/12/30 10:12:43;;;;;;;3.05;1.10;;;27.20;55.60;;;;;;4164740;28;20063;-63
2021/12/30 10:14:53;;;;;;;4.68;1.30;;;27.20;55.50;;;;;;4164469;28;20589;-63
2021/12/30 10:17:16;;;;;;;4.85;1.23;;;27.30;55.70;;;;;;4167369;28;20757;-62
2021/12/30 10:19:26;;;;;;;1.88;0.82;;;27.30;55.70;;;;;;4166121;28;20075;-65
2021/12/30 10:21:36;;;;;;;2.50;0.82;;;27.30;55.90;;;;;;4167628;28;20056;-64
2021/12/30 10:23:43;;;;;;;5.45;1.60;;;27.30;55.70;;;;;;4167345;28;20054;-62
2021/12/30 10:25:49;;;;;;;3.60;0.80;;;27.30;55.70;;;;;;4166484;28;20049;-62
2021/12/30 10:27:51;;;;;;;3.25;1.10;;;27.30;55.70;;;;;;4156403;28;20840;-62
2021/12/30 10:29:54;;;;;;;3.22;1.10;;;27.30;55.60;;;;;;4158657;28;20063;-61
2021/12/30 10:31:56;;;;;;;;;;;27.40;55.60;;;;;;4151065;28;20052;-63
2021/12/30 10:34:12;;;;;;;2.00;0.80;;;27.40;55.50;;;;;;4138293;28;19929;-66
2021/12/30 10:36:16;;;;;;;2.58;1.00;;;27.40;55.60;;;;;;4152621;28;20639;-62
2021/12/30 10:38:19;;;;;;;2.00;1.00;;;27.40;55.50;;;;;;4159472;28;20052;-62
2021/12/30 10:40:29;;;;;;;2.30;1.00;;;27.40;55.60;;;;;;4142277;28;21546;-61
2021/12/30 10:42:33;;;;;;;3.03;1.27;;;27.40;55.50;;;;;;4155246;28;21814;-61
2021/12/30 10:44:56;;;;;;;3.28;1.10;;;27.40;55.50;;;;;;4153380;28;20622;-62
2021/12/30 10:47:01;;;;;;;3.83;1.08;;;27.40;55.50;;;;;;4157293;28;20060;-62